KPHT/PHT METAR and TAF weather

Enter ICAO airport designator
Station Type Date Time Source
KPHT METAR 2022/05/26 05:55 UTC NOAA

KPHT 260555Z AUTO 18006KT 10SM BKN012 OVC016 20/20 A2987 RMK A01


Station Type Date Time Source
KPHT Decoded METAR 2022/05/26 05:55 UTC NOAA

Station name not available
May 26, 2022 - 01:55 AM EDT / 2022.05.26 0555 UTC
Wind: from the S (180 degrees) at 7 MPH (6 KT):0
Visibility: 10 mile(s):0
Sky conditions: overcast
Temperature: 68 F (20 C)
Dew Point: 68 F (20 C)
Relative Humidity: 100%
Pressure (altimeter): 29.87 in. Hg (1011 hPa)
ob: KPHT 260555Z AUTO 18006KT 10SM BKN012 OVC016 20/20 A2987 RMK A01
cycle: 6

Station Type Date Time Source
KPHT TAF UTC NOAA

Error!

Example: see airport list